sensor_id;sensor_type;location;lat;lon;timestamp;noise_LAeq;noise_LA_min;noise_LA_max;noise_LA01;noise_LA95
71020;Laerm;58902;51.436;5.980;2023-12-20T00:00:04;30.16;28.95;33.37;;
71020;Laerm;58902;51.436;5.980;2023-12-20T00:00:14;42.10;28.51;57.12;;
71020;Laerm;58902;51.436;5.980;2023-12-20T00:00:25;29.67;28.58;31.34;;
71020;Laerm;58902;51.436;5.980;2023-12-20T00:00:38;29.55;28.29;32.46;;
71020;Laerm;58902;51.436;5.980;2023-12-20T00:00:49;29.82;28.48;37.30;;
71020;Laerm;58902;51.436;5.980;2023-12-20T00:00:59;29.75;28.51;31.57;;
71020;Laerm;58902;51.436;5.980;2023-12-20T00:01:09;30.50;29.02;34.77;;
71020;Laerm;58902;51.436;5.980;2023-12-20T00:01:20;30.66;29.28;35.90;;
71020;Laerm;58902;51.436;5.980;2023-12-20T00:01:31;30.64;29.35;34.17;;
71020;Laerm;58902;51.436;5.980;2023-12-20T00:01:41;30.70;29.60;32.39;;
71020;Laerm;58902;51.436;5.980;2023-12-20T00:01:52;30.89;29.41;34.10;;
71020;Laerm;58902;51.436;5.980;2023-12-20T00:02:02;30.66;29.42;32.11;;
71020;Laerm;58902;51.436;5.980;2023-12-20T00:02:12;30.91;29.70;32.55;;
71020;Laerm;58902;51.436;5.980;2023-12-20T00:02:23;30.68;29.57;32.10;;
71020;Laerm;58902;51.436;5.980;2023-12-20T00:02:33;30.95;29.70;33.05;;
71020;Laerm;58902;51.436;5.980;2023-12-20T00:02:43;30.85;29.75;33.73;;
71020;Laerm;58902;51.436;5.980;2023-12-20T00:02:57;30.63;29.46;32.05;;
71020;Laerm;58902;51.436;5.980;2023-12-20T00:03:07;30.90;29.81;32.23;;
71020;Laerm;58902;51.436;5.980;2023-12-20T00:03:17;30.81;29.61;36.00;;
71020;Laerm;58902;51.436;5.980;2023-12-20T00:03:28;30.74;29.02;32.82;;
71020;Laerm;58902;51.436;5.980;2023-12-20T00:03:38;30.86;29.76;36.55;;
71020;Laerm;58902;51.436;5.980;2023-12-20T00:03:48;31.07;29.55;34.90;;
71020;Laerm;58902;51.436;5.980;2023-12-20T00:03:59;30.97;29.63;38.77;;
71020;Laerm;58902;51.436;5.980;2023-12-20T00:04:09;30.68;29.22;32.67;;
71020;Laerm;58902;51.436;5.980;2023-12-20T00:04:19;30.83;29.53;36.74;;
71020;Laerm;58902;51.436;5.980;2023-12-20T00:04:30;30.68;29.32;32.36;;
71020;Laerm;58902;51.436;5.980;2023-12-20T00:04:40;30.76;29.38;35.95;;
71020;Laerm;58902;51.436;5.980;2023-12-20T00:04:50;30.57;28.94;33.76;;
71020;Laerm;58902;51.436;5.980;2023-12-20T00:05:01;30.53;29.21;32.18;;
71020;Laerm;58902;51.436;5.980;2023-12-20T00:05:11;30.10;28.76;32.81;;
71020;Laerm;58902;51.436;5.980;2023-12-20T00:05:22;29.68;28.46;32.60;;
71020;Laerm;58902;51.436;5.980;2023-12-20T00:05:32;29.67;28.39;32.83;;
71020;Laerm;58902;51.436;5.980;2023-12-20T00:05:43;29.58;28.36;31.59;;
71020;Laerm;58902;51.436;5.980;2023-12-20T00:05:53;30.28;28.83;36.45;;
71020;Laerm;58902;51.436;5.980;2023-12-20T00:06:05;29.90;28.73;33.28;;
71020;Laerm;58902;51.436;5.980;2023-12-20T00:06:16;30.30;28.96;38.05;;
71020;Laerm;58902;51.436;5.980;2023-12-20T00:06:26;30.98;29.28;36.01;;
71020;Laerm;58902;51.436;5.980;2023-12-20T00:06:36;30.24;28.95;34.16;;
71020;Laerm;58902;51.436;5.980;2023-12-20T00:06:47;29.98;28.77;31.49;;
71020;Laerm;58902;51.436;5.980;2023-12-20T00:06:57;29.93;28.67;37.14;;
71020;Laerm;58902;51.436;5.980;2023-12-20T00:07:07;29.57;28.66;31.06;;
71020;Laerm;58902;51.436;5.980;2023-12-20T00:07:18;29.83;28.74;31.82;;
71020;Laerm;58902;51.436;5.980;2023-12-20T00:07:28;30.36;28.73;37.20;;
71020;Laerm;58902;51.436;5.980;2023-12-20T00:07:39;29.99;28.58;31.73;;
71020;Laerm;58902;51.436;5.980;2023-12-20T00:07:49;30.43;28.60;35.90;;
71020;Laerm;58902;51.436;5.980;2023-12-20T00:07:59;30.13;28.84;34.99;;
71020;Laerm;58902;51.436;5.980;2023-12-20T00:08:10;30.86;28.91;34.65;;
71020;Laerm;58902;51.436;5.980;2023-12-20T00:08:20;30.47;28.52;34.95;;
71020;Laerm;58902;51.436;5.980;2023-12-20T00:08:31;30.65;29.05;36.21;;
71020;Laerm;58902;51.436;5.980;2023-12-20T00:08:41;30.71;29.10;37.66;;
71020;Laerm;58902;51.436;5.980;2023-12-20T00:08:52;30.39;28.87;38.03;;
71020;Laerm;58902;51.436;5.980;2023-12-20T00:09:02;29.95;28.62;35.34;;
71020;Laerm;58902;51.436;5.980;2023-12-20T00:09:13;30.22;28.87;35.75;;
71020;Laerm;58902;51.436;5.980;2023-12-20T00:09:23;30.13;28.81;32.22;;
71020;Laerm;58902;51.436;5.980;2023-12-20T00:09:33;29.81;28.67;31.34;;
71020;Laerm;58902;51.436;5.980;2023-12-20T00:09:44;29.70;28.62;34.71;;
71020;Laerm;58902;51.436;5.980;2023-12-20T00:09:57;29.69;28.29;33.85;;
71020;Laerm;58902;51.436;5.980;2023-12-20T00:10:07;29.63;28.32;34.10;;
71020;Laerm;58902;51.436;5.980;2023-12-20T00:10:18;29.41;28.26;32.98;;
71020;Laerm;58902;51.436;5.980;2023-12-20T00:10:28;29.59;28.43;33.98;;
71020;Laerm;58902;51.436;5.980;2023-12-20T00:10:38;29.70;28.46;35.65;;
71020;Laerm;58902;51.436;5.980;2023-12-20T00:10:49;29.56;28.55;31.51;;
71020;Laerm;58902;51.436;5.980;2023-12-20T00:10:59;30.05;28.51;36.13;;
71020;Laerm;58902;51.436;5.980;2023-12-20T00:11:10;29.83;28.35;36.76;;
71020;Laerm;58902;51.436;5.980;2023-12-20T00:11:20;30.05;28.63;34.86;;
71020;Laerm;58902;51.436;5.980;2023-12-20T00:11:30;30.32;28.48;44.08;;
71020;Laerm;58902;51.436;5.980;2023-12-20T00:11:41;29.78;28.79;31.34;;
71020;Laerm;58902;51.436;5.980;2023-12-20T00:11:52;29.46;28.00;34.76;;
71020;Laerm;58902;51.436;5.980;2023-12-20T00:12:02;29.43;28.27;31.47;;
71020;Laerm;58902;51.436;5.980;2023-12-20T00:12:13;29.62;28.29;34.03;;
71020;Laerm;58902;51.436;5.980;2023-12-20T00:12:23;29.54;28.30;33.74;;
71020;Laerm;58902;51.436;5.980;2023-12-20T00:12:34;30.02;28.68;34.22;;
71020;Laerm;58902;51.436;5.980;2023-12-20T00:12:44;30.46;28.96;34.44;;
71020;Laerm;58902;51.436;5.980;2023-12-20T00:12:54;31.16;29.70;37.23;;
71020;Laerm;58902;51.436;5.980;2023-12-20T00:13:05;30.93;29.71;33.99;;
71020;Laerm;58902;51.436;5.980;2023-12-20T00:13:17;31.31;29.65;39.02;;
71020;Laerm;58902;51.436;5.980;2023-12-20T00:13:27;30.88;29.56;34.58;;
71020;Laerm;58902;51.436;5.980;2023-12-20T00:13:37;30.63;29.37;35.10;;
71020;Laerm;58902;51.436;5.980;2023-12-20T00:13:48;30.87;29.84;32.66;;
71020;Laerm;58902;51.436;5.980;2023-12-20T00:13:58;30.91;29.43;33.02;;
71020;Laerm;58902;51.436;5.980;2023-12-20T00:14:08;31.27;29.95;36.43;;
71020;Laerm;58902;51.436;5.980;2023-12-20T00:14:19;30.87;29.64;32.72;;
71020;Laerm;58902;51.436;5.980;2023-12-20T00:14:29;30.69;29.45;32.54;;
71020;Laerm;58902;51.436;5.980;2023-12-20T00:14:39;30.93;29.55;32.71;;
71020;Laerm;58902;51.436;5.980;2023-12-20T00:14:50;31.21;29.57;38.20;;
71020;Laerm;58902;51.436;5.980;2023-12-20T00:15:00;31.16;29.66;38.71;;
71020;Laerm;58902;51.436;5.980;2023-12-20T00:15:11;31.32;30.01;35.69;;
71020;Laerm;58902;51.436;5.980;2023-12-20T00:15:21;31.27;29.68;41.64;;
71020;Laerm;58902;51.436;5.980;2023-12-20T00:15:31;30.95;29.73;32.67;;
71020;Laerm;58902;51.436;5.980;2023-12-20T00:15:42;31.00;29.27;34.68;;
71020;Laerm;58902;51.436;5.980;2023-12-20T00:15:52;30.85;29.32;33.96;;
71020;Laerm;58902;51.436;5.980;2023-12-20T00:16:03;31.17;29.92;36.38;;
71020;Laerm;58902;51.436;5.980;2023-12-20T00:16:13;30.86;29.45;35.11;;
71020;Laerm;58902;51.436;5.980;2023-12-20T00:16:24;31.19;29.73;33.08;;
71020;Laerm;58902;51.436;5.980;2023-12-20T00:16:34;31.33;29.70;35.17;;
71020;Laerm;58902;51.436;5.980;2023-12-20T00:16:45;31.34;29.86;37.32;;
71020;Laerm;58902;51.436;5.980;2023-12-20T00:16:55;31.27;29.88;32.88;;
71020;Laerm;58902;51.436;5.980;2023-12-20T00:17:05;31.97;29.78;33.98;;
71020;Laerm;58902;51.436;5.980;2023-12-20T00:17:16;32.65;30.72;34.60;;
71020;Laerm;58902;51.436;5.980;2023-12-20T00:17:26;32.68;30.40;37.30;;
71020;Laerm;58902;51.436;5.980;2023-12-20T00:17:36;31.58;30.29;36.20;;
71020;Laerm;58902;51.436;5.980;2023-12-20T00:17:47;31.24;29.83;35.07;;
71020;Laerm;58902;51.436;5.980;2023-12-20T00:17:57;31.13;29.80;35.78;;
71020;Laerm;58902;51.436;5.980;2023-12-20T00:18:08;30.86;29.14;35.65;;
71020;Laerm;58902;51.436;5.980;2023-12-20T00:18:18;30.85;29.60;36.68;;
71020;Laerm;58902;51.436;5.980;2023-12-20T00:18:29;30.61;29.00;32.04;;
71020;Laerm;58902;51.436;5.980;2023-12-20T00:18:39;30.54;29.52;32.67;;
71020;Laerm;58902;51.436;5.980;2023-12-20T00:18:49;30.69;29.57;32.12;;
71020;Laerm;58902;51.436;5.980;2023-12-20T00:19:00;32.54;29.84;41.04;;
71020;Laerm;58902;51.436;5.980;2023-12-20T00:19:11;30.81;29.29;34.65;;
71020;Laerm;58902;51.436;5.980;2023-12-20T00:19:21;30.42;29.22;32.23;;
71020;Laerm;58902;51.436;5.980;2023-12-20T00:19:32;30.51;29.13;33.54;;
71020;Laerm;58902;51.436;5.980;2023-12-20T00:19:42;30.56;29.01;33.66;;
71020;Laerm;58902;51.436;5.980;2023-12-20T00:19:52;31.28;29.72;34.81;;
71020;Laerm;58902;51.436;5.980;2023-12-20T00:20:03;30.66;29.02;32.98;;
71020;Laerm;58902;51.436;5.980;2023-12-20T00:20:13;30.65;29.14;35.52;;
71020;Laerm;58902;51.436;5.980;2023-12-20T00:20:24;30.17;28.85;32.83;;
71020;Laerm;58902;51.436;5.980;2023-12-20T00:20:34;30.31;28.99;32.93;;
71020;Laerm;58902;51.436;5.980;2023-12-20T00:20:45;30.59;28.97;33.19;;
71020;Laerm;58902;51.436;5.980;2023-12-20T00:20:56;30.90;29.23;34.03;;
71020;Laerm;58902;51.436;5.980;2023-12-20T00:21:06;32.21;29.11;46.36;;
71020;Laerm;58902;51.436;5.980;2023-12-20T00:21:17;30.64;29.34;35.66;;
71020;Laerm;58902;51.436;5.980;2023-12-20T00:21:27;30.74;29.24;33.63;;
71020;Laerm;58902;51.436;5.980;2023-12-20T00:21:37;29.62;28.39;33.80;;
71020;Laerm;58902;51.436;5.980;2023-12-20T00:21:48;29.52;28.31;33.34;;
71020;Laerm;58902;51.436;5.980;2023-12-20T00:21:58;29.56;28.69;31.07;;
71020;Laerm;58902;51.436;5.980;2023-12-20T00:22:09;29.65;28.64;32.10;;
71020;Laerm;58902;51.436;5.980;2023-12-20T00:22:20;29.68;28.28;38.03;;
71020;Laerm;58902;51.436;5.980;2023-12-20T00:22:30;29.98;28.65;33.08;;
71020;Laerm;58902;51.436;5.980;2023-12-20T00:22:40;30.95;28.77;43.09;;
71020;Laerm;58902;51.436;5.980;2023-12-20T00:22:51;32.92;28.76;43.56;;
71020;Laerm;58902;51.436;5.980;2023-12-20T00:23:01;29.93;28.36;34.45;;
71020;Laerm;58902;51.436;5.980;2023-12-20T00:23:13;29.83;28.51;33.94;;
71020;Laerm;58902;51.436;5.980;2023-12-20T00:23:23;30.07;28.90;31.46;;
71020;Laerm;58902;51.436;5.980;2023-12-20T00:23:33;30.03;28.80;34.61;;
71020;Laerm;58902;51.436;5.980;2023-12-20T00:23:44;29.66;28.62;31.57;;
71020;Laerm;58902;51.436;5.980;2023-12-20T00:23:54;29.84;28.12;31.35;;
71020;Laerm;58902;51.436;5.980;2023-12-20T00:24:04;29.57;28.64;32.44;;
71020;Laerm;58902;51.436;5.980;2023-12-20T00:24:15;29.62;28.66;31.18;;
71020;Laerm;58902;51.436;5.980;2023-12-20T00:24:26;29.82;28.57;39.22;;
71020;Laerm;58902;51.436;5.980;2023-12-20T00:24:36;30.31;28.75;31.88;;
71020;Laerm;58902;51.436;5.980;2023-12-20T00:24:47;38.49;29.60;52.98;;
71020;Laerm;58902;51.436;5.980;2023-12-20T00:24:57;32.30;29.59;36.30;;
71020;Laerm;58902;51.436;5.980;2023-12-20T00:25:08;39.44;30.33;53.35;;
71020;Laerm;58902;51.436;5.980;2023-12-20T00:25:18;33.34;29.47;43.85;;
71020;Laerm;58902;51.436;5.980;2023-12-20T00:25:28;30.00;28.73;31.94;;
71020;Laerm;58902;51.436;5.980;2023-12-20T00:25:39;29.77;28.46;31.06;;
71020;Laerm;58902;51.436;5.980;2023-12-20T00:25:49;29.68;28.40;32.02;;
71020;Laerm;58902;51.436;5.980;2023-12-20T00:25:59;29.77;28.39;32.17;;
71020;Laerm;58902;51.436;5.980;2023-12-20T00:26:10;30.59;29.26;34.36;;
71020;Laerm;58902;51.436;5.980;2023-12-20T00:26:20;30.11;28.66;31.70;;
71020;Laerm;58902;51.436;5.980;2023-12-20T00:26:31;30.40;29.16;32.04;;
71020;Laerm;58902;51.436;5.980;2023-12-20T00:26:41;30.50;29.63;32.12;;
71020;Laerm;58902;51.436;5.980;2023-12-20T00:26:52;30.69;29.65;31.88;;
71020;Laerm;58902;51.436;5.980;2023-12-20T00:27:02;30.73;29.71;33.49;;
71020;Laerm;58902;51.436;5.980;2023-12-20T00:27:13;30.81;29.51;34.11;;
71020;Laerm;58902;51.436;5.980;2023-12-20T00:27:23;31.21;29.82;35.20;;
71020;Laerm;58902;51.436;5.980;2023-12-20T00:27:34;30.97;29.51;33.81;;
71020;Laerm;58902;51.436;5.980;2023-12-20T00:27:44;31.63;29.70;35.34;;
71020;Laerm;58902;51.436;5.980;2023-12-20T00:27:54;31.96;30.41;33.76;;
71020;Laerm;58902;51.436;5.980;2023-12-20T00:28:05;32.36;30.80;34.31;;
71020;Laerm;58902;51.436;5.980;2023-12-20T00:28:15;33.14;31.37;34.98;;
71020;Laerm;58902;51.436;5.980;2023-12-20T00:28:26;31.94;30.35;35.24;;
71020;Laerm;58902;51.436;5.980;2023-12-20T00:28:36;34.78;31.04;40.10;;
71020;Laerm;58902;51.436;5.980;2023-12-20T00:28:47;36.02;31.14;41.63;;
71020;Laerm;58902;51.436;5.980;2023-12-20T00:28:57;31.53;30.01;34.14;;
71020;Laerm;58902;51.436;5.980;2023-12-20T00:29:07;30.85;29.49;32.94;;
71020;Laerm;58902;51.436;5.980;2023-12-20T00:29:17;30.84;29.70;33.28;;
71020;Laerm;58902;51.436;5.980;2023-12-20T00:29:28;30.61;29.26;31.93;;
71020;Laerm;58902;51.436;5.980;2023-12-20T00:29:38;30.81;29.56;34.32;;
71020;Laerm;58902;51.436;5.980;2023-12-20T00:29:49;30.72;29.27;36.44;;
71020;Laerm;58902;51.436;5.980;2023-12-20T00:30:00;30.62;29.00;32.06;;
71020;Laerm;58902;51.436;5.980;2023-12-20T00:30:10;30.69;29.67;33.47;;
71020;Laerm;58902;51.436;5.980;2023-12-20T00:30:21;31.40;29.43;36.45;;
71020;Laerm;58902;51.436;5.980;2023-12-20T00:30:31;30.92;29.55;40.28;;
71020;Laerm;58902;51.436;5.980;2023-12-20T00:30:42;34.95;30.09;45.80;;
71020;Laerm;58902;51.436;5.980;2023-12-20T00:30:52;40.67;30.13;57.89;;
71020;Laerm;58902;51.436;5.980;2023-12-20T00:31:02;30.96;29.71;32.57;;
71020;Laerm;58902;51.436;5.980;2023-12-20T00:31:13;39.34;29.75;54.51;;
71020;Laerm;58902;51.436;5.980;2023-12-20T00:31:23;31.23;29.73;36.30;;
71020;Laerm;58902;51.436;5.980;2023-12-20T00:31:34;31.65;30.03;35.75;;
71020;Laerm;58902;51.436;5.980;2023-12-20T00:31:44;33.41;29.72;41.33;;
71020;Laerm;58902;51.436;5.980;2023-12-20T00:31:55;30.89;29.62;34.33;;
71020;Laerm;58902;51.436;5.980;2023-12-20T00:32:05;31.08;29.55;35.74;;
71020;Laerm;58902;51.436;5.980;2023-12-20T00:32:16;30.86;29.44;32.82;;
71020;Laerm;58902;51.436;5.980;2023-12-20T00:32:26;30.51;29.37;32.48;;
71020;Laerm;58902;51.436;5.980;2023-12-20T00:32:37;30.72;29.47;32.00;;
71020;Laerm;58902;51.436;5.980;2023-12-20T00:32:48;30.35;28.68;36.46;;
71020;Laerm;58902;51.436;5.980;2023-12-20T00:32:58;29.77;28.34;34.53;;
71020;Laerm;58902;51.436;5.980;2023-12-20T00:33:08;30.02;28.55;34.13;;
71020;Laerm;58902;51.436;5.980;2023-12-20T00:33:19;30.11;28.97;34.15;;
71020;Laerm;58902;51.436;5.980;2023-12-20T00:33:29;30.10;28.69;32.24;;
71020;Laerm;58902;51.436;5.980;2023-12-20T00:33:39;30.02;28.96;33.29;;
71020;Laerm;58902;51.436;5.980;2023-12-20T00:33:53;29.94;28.92;31.66;;
71020;Laerm;58902;51.436;5.980;2023-12-20T00:34:07;29.99;28.79;34.33;;
71020;Laerm;58902;51.436;5.980;2023-12-20T00:34:20;29.69;28.39;32.98;;
71020;Laerm;58902;51.436;5.980;2023-12-20T00:34:30;29.67;28.51;31.51;;
71020;Laerm;58902;51.436;5.980;2023-12-20T00:34:40;29.62;28.53;31.66;;
71020;Laerm;58902;51.436;5.980;2023-12-20T00:34:51;29.58;28.61;30.70;;
71020;Laerm;58902;51.436;5.980;2023-12-20T00:35:01;29.78;28.37;38.11;;
71020;Laerm;58902;51.436;5.980;2023-12-20T00:35:15;30.15;28.73;32.27;;
71020;Laerm;58902;51.436;5.980;2023-12-20T00:35:26;29.80;28.41;33.37;;
71020;Laerm;58902;51.436;5.980;2023-12-20T00:35:36;29.67;28.12;31.66;;
71020;Laerm;58902;51.436;5.980;2023-12-20T00:35:46;29.80;28.65;34.20;;
71020;Laerm;58902;51.436;5.980;2023-12-20T00:35:57;29.98;28.70;34.47;;
71020;Laerm;58902;51.436;5.980;2023-12-20T00:36:07;29.94;28.58;32.97;;
71020;Laerm;58902;51.436;5.980;2023-12-20T00:36:17;30.85;28.87;33.14;;
71020;Laerm;58902;51.436;5.980;2023-12-20T00:36:28;29.65;28.46;33.55;;
71020;Laerm;58902;51.436;5.980;2023-12-20T00:36:38;29.52;28.45;30.84;;
71020;Laerm;58902;51.436;5.980;2023-12-20T00:36:48;29.59;28.61;32.68;;
71020;Laerm;58902;51.436;5.980;2023-12-20T00:36:59;30.04;28.88;34.27;;
71020;Laerm;58902;51.436;5.980;2023-12-20T00:37:09;29.56;28.31;31.33;;
71020;Laerm;58902;51.436;5.980;2023-12-20T00:37:20;29.62;28.42;35.77;;
71020;Laerm;58902;51.436;5.980;2023-12-20T00:37:30;43.24;28.81;51.17;;
71020;Laerm;58902;51.436;5.980;2023-12-20T00:37:41;40.46;30.80;50.04;;
71020;Laerm;58902;51.436;5.980;2023-12-20T00:37:51;34.99;31.97;37.19;;
71020;Laerm;58902;51.436;5.980;2023-12-20T00:38:02;34.11;31.51;37.71;;
71020;Laerm;58902;51.436;5.980;2023-12-20T00:38:12;41.01;32.90;49.23;;
71020;Laerm;58902;51.436;5.980;2023-12-20T00:38:22;75.57;48.26;81.87;;
71020;Laerm;58902;51.436;5.980;2023-12-20T00:38:33;74.97;71.24;81.32;;
71020;Laerm;58902;51.436;5.980;2023-12-20T00:38:43;73.73;51.62;81.74;;
71020;Laerm;58902;51.436;5.980;2023-12-20T00:38:54;44.21;37.60;54.21;;
71020;Laerm;58902;51.436;5.980;2023-12-20T00:39:07;37.21;32.89;40.02;;
71020;Laerm;58902;51.436;5.980;2023-12-20T00:39:18;32.37;30.11;36.11;;
71020;Laerm;58902;51.436;5.980;2023-12-20T00:39:28;31.27;29.85;34.79;;
71020;Laerm;58902;51.436;5.980;2023-12-20T00:39:38;31.62;30.01;33.24;;
71020;Laerm;58902;51.436;5.980;2023-12-20T00:39:49;31.07;29.46;33.12;;
71020;Laerm;58902;51.436;5.980;2023-12-20T00:39:59;30.81;29.52;33.93;;
71020;Laerm;58902;51.436;5.980;2023-12-20T00:40:10;30.24;29.11;32.00;;
71020;Laerm;58902;51.436;5.980;2023-12-20T00:40:20;30.49;29.11;37.64;;
71020;Laerm;58902;51.436;5.980;2023-12-20T00:40:31;30.43;28.96;31.94;;
71020;Laerm;58902;51.436;5.980;2023-12-20T00:40:41;30.72;29.45;31.88;;
71020;Laerm;58902;51.436;5.980;2023-12-20T00:40:51;30.68;29.40;32.70;;
71020;Laerm;58902;51.436;5.980;2023-12-20T00:41:02;31.09;29.56;33.53;;
71020;Laerm;58902;51.436;5.980;2023-12-20T00:41:12;30.62;29.14;34.51;;
71020;Laerm;58902;51.436;5.980;2023-12-20T00:41:23;30.82;29.66;35.24;;
71020;Laerm;58902;51.436;5.980;2023-12-20T00:41:33;31.01;29.29;32.18;;
71020;Laerm;58902;51.436;5.980;2023-12-20T00:41:43;30.78;29.53;32.30;;
71020;Laerm;58902;51.436;5.980;2023-12-20T00:41:54;30.84;29.64;33.34;;
71020;Laerm;58902;51.436;5.980;2023-12-20T00:42:04;30.90;29.82;32.13;;
71020;Laerm;58902;51.436;5.980;2023-12-20T00:42:15;30.79;29.62;34.20;;
71020;Laerm;58902;51.436;5.980;2023-12-20T00:42:25;30.90;29.61;35.79;;
71020;Laerm;58902;51.436;5.980;2023-12-20T00:42:35;31.01;29.71;32.23;;
71020;Laerm;58902;51.436;5.980;2023-12-20T00:42:46;30.81;29.48;35.94;;
71020;Laerm;58902;51.436;5.980;2023-12-20T00:42:57;30.83;29.38;32.67;;
71020;Laerm;58902;51.436;5.980;2023-12-20T00:43:07;30.96;29.87;35.87;;
71020;Laerm;58902;51.436;5.980;2023-12-20T00:43:17;30.96;29.11;34.05;;
71020;Laerm;58902;51.436;5.980;2023-12-20T00:43:28;31.16;29.73;33.69;;
71020;Laerm;58902;51.436;5.980;2023-12-20T00:43:38;30.91;29.68;32.64;;
71020;Laerm;58902;51.436;5.980;2023-12-20T00:43:48;30.97;29.88;33.37;;
71020;Laerm;58902;51.436;5.980;2023-12-20T00:43:59;31.08;29.76;34.97;;
71020;Laerm;58902;51.436;5.980;2023-12-20T00:44:09;30.98;29.74;32.66;;
71020;Laerm;58902;51.436;5.980;2023-12-20T00:44:19;30.90;29.53;34.54;;
71020;Laerm;58902;51.436;5.980;2023-12-20T00:44:30;30.95;29.62;33.50;;
71020;Laerm;58902;51.436;5.980;2023-12-20T00:44:40;31.10;29.63;33.00;;
71020;Laerm;58902;51.436;5.980;2023-12-20T00:44:50;30.96;29.24;35.62;;
71020;Laerm;58902;51.436;5.980;2023-12-20T00:45:01;30.97;29.74;32.38;;
71020;Laerm;58902;51.436;5.980;2023-12-20T00:45:12;30.88;29.65;34.92;;
71020;Laerm;58902;51.436;5.980;2023-12-20T00:45:22;30.90;29.39;32.77;;
71020;Laerm;58902;51.436;5.980;2023-12-20T00:45:33;31.00;29.78;32.68;;
71020;Laerm;58902;51.436;5.980;2023-12-20T00:45:43;30.99;29.58;38.38;;
71020;Laerm;58902;51.436;5.980;2023-12-20T00:45:54;31.56;30.01;34.18;;
71020;Laerm;58902;51.436;5.980;2023-12-20T00:46:05;31.16;29.02;33.14;;
71020;Laerm;58902;51.436;5.980;2023-12-20T00:46:15;30.88;29.64;32.70;;
71020;Laerm;58902;51.436;5.980;2023-12-20T00:46:26;42.52;29.78;48.40;;
71020;Laerm;58902;51.436;5.980;2023-12-20T00:46:36;43.40;31.17;49.74;;
71020;Laerm;58902;51.436;5.980;2023-12-20T00:46:47;34.48;32.03;37.29;;
71020;Laerm;58902;51.436;5.980;2023-12-20T00:46:57;34.74;32.13;38.51;;
71020;Laerm;58902;51.436;5.980;2023-12-20T00:47:07;35.85;32.94;39.07;;
71020;Laerm;58902;51.436;5.980;2023-12-20T00:47:18;46.52;36.23;56.70;;
71020;Laerm;58902;51.436;5.980;2023-12-20T00:47:28;72.81;57.24;80.59;;
71020;Laerm;58902;51.436;5.980;2023-12-20T00:47:38;72.66;56.36;80.58;;
71020;Laerm;58902;51.436;5.980;2023-12-20T00:47:49;49.96;40.03;57.20;;
71020;Laerm;58902;51.436;5.980;2023-12-20T00:47:59;37.24;30.93;44.45;;
71020;Laerm;58902;51.436;5.980;2023-12-20T00:48:10;31.15;29.29;33.49;;
71020;Laerm;58902;51.436;5.980;2023-12-20T00:48:20;30.15;28.81;32.21;;
71020;Laerm;58902;51.436;5.980;2023-12-20T00:48:30;29.64;28.27;31.70;;
71020;Laerm;58902;51.436;5.980;2023-12-20T00:48:41;29.72;28.60;34.71;;
71020;Laerm;58902;51.436;5.980;2023-12-20T00:48:52;29.70;28.30;33.86;;
71020;Laerm;58902;51.436;5.980;2023-12-20T00:49:02;29.72;28.25;35.08;;
71020;Laerm;58902;51.436;5.980;2023-12-20T00:49:13;29.73;28.67;31.86;;
71020;Laerm;58902;51.436;5.980;2023-12-20T00:49:23;29.63;28.19;33.07;;
71020;Laerm;58902;51.436;5.980;2023-12-20T00:49:33;29.96;28.62;31.91;;
71020;Laerm;58902;51.436;5.980;2023-12-20T00:49:44;29.50;28.45;30.77;;
71020;Laerm;58902;51.436;5.980;2023-12-20T00:49:54;29.72;28.33;31.43;;
71020;Laerm;58902;51.436;5.980;2023-12-20T00:50:05;29.80;28.78;34.61;;
71020;Laerm;58902;51.436;5.980;2023-12-20T00:50:15;30.26;28.53;32.09;;
71020;Laerm;58902;51.436;5.980;2023-12-20T00:50:26;29.89;28.43;32.08;;
71020;Laerm;58902;51.436;5.980;2023-12-20T00:50:36;30.00;28.78;32.85;;
71020;Laerm;58902;51.436;5.980;2023-12-20T00:50:47;29.46;28.33;32.45;;
71020;Laerm;58902;51.436;5.980;2023-12-20T00:50:57;30.37;28.83;32.68;;
71020;Laerm;58902;51.436;5.980;2023-12-20T00:51:07;30.54;28.56;33.80;;
71020;Laerm;58902;51.436;5.980;2023-12-20T00:51:18;30.41;29.02;32.40;;
71020;Laerm;58902;51.436;5.980;2023-12-20T00:51:29;30.24;28.83;34.59;;
71020;Laerm;58902;51.436;5.980;2023-12-20T00:51:39;30.27;28.88;37.57;;
71020;Laerm;58902;51.436;5.980;2023-12-20T00:51:49;29.79;28.17;32.19;;
71020;Laerm;58902;51.436;5.980;2023-12-20T00:52:00;29.78;28.14;31.72;;
71020;Laerm;58902;51.436;5.980;2023-12-20T00:52:11;29.92;28.81;33.41;;
71020;Laerm;58902;51.436;5.980;2023-12-20T00:52:21;29.74;28.73;32.26;;
71020;Laerm;58902;51.436;5.980;2023-12-20T00:52:32;29.57;28.63;32.54;;
71020;Laerm;58902;51.436;5.980;2023-12-20T00:52:43;30.31;28.74;32.52;;
71020;Laerm;58902;51.436;5.980;2023-12-20T00:52:53;29.77;28.68;32.41;;
71020;Laerm;58902;51.436;5.980;2023-12-20T00:53:04;30.38;29.17;33.11;;
71020;Laerm;58902;51.436;5.980;2023-12-20T00:53:18;29.65;28.33;31.49;;
71020;Laerm;58902;51.436;5.980;2023-12-20T00:53:29;29.91;28.54;31.41;;
71020;Laerm;58902;51.436;5.980;2023-12-20T00:53:39;29.89;28.77;31.27;;
71020;Laerm;58902;51.436;5.980;2023-12-20T00:53:50;29.91;28.47;37.03;;
71020;Laerm;58902;51.436;5.980;2023-12-20T00:54:00;30.62;28.79;37.00;;
71020;Laerm;58902;51.436;5.980;2023-12-20T00:54:10;30.78;29.52;34.14;;
71020;Laerm;58902;51.436;5.980;2023-12-20T00:54:21;30.95;29.78;33.24;;
71020;Laerm;58902;51.436;5.980;2023-12-20T00:54:31;30.88;29.53;32.64;;
71020;Laerm;58902;51.436;5.980;2023-12-20T00:54:41;30.92;29.04;32.69;;
71020;Laerm;58902;51.436;5.980;2023-12-20T00:54:52;30.93;29.46;35.94;;
71020;Laerm;58902;51.436;5.980;2023-12-20T00:55:02;30.62;29.40;32.31;;
71020;Laerm;58902;51.436;5.980;2023-12-20T00:55:14;30.78;29.51;37.76;;
71020;Laerm;58902;51.436;5.980;2023-12-20T00:55:27;30.90;29.60;38.95;;
71020;Laerm;58902;51.436;5.980;2023-12-20T00:55:37;30.87;29.56;33.37;;
71020;Laerm;58902;51.436;5.980;2023-12-20T00:55:47;30.83;29.40;32.60;;
71020;Laerm;58902;51.436;5.980;2023-12-20T00:55:58;31.07;29.69;34.58;;
71020;Laerm;58902;51.436;5.980;2023-12-20T00:56:09;30.71;29.38;33.01;;
71020;Laerm;58902;51.436;5.980;2023-12-20T00:56:19;30.89;29.42;32.93;;
71020;Laerm;58902;51.436;5.980;2023-12-20T00:56:29;30.77;29.47;32.26;;
71020;Laerm;58902;51.436;5.980;2023-12-20T00:56:40;30.95;29.65;32.79;;
71020;Laerm;58902;51.436;5.980;2023-12-20T00:56:50;30.89;29.57;33.81;;
71020;Laerm;58902;51.436;5.980;2023-12-20T00:57:00;30.82;29.38;35.61;;
71020;Laerm;58902;51.436;5.980;2023-12-20T00:57:11;31.11;29.89;33.90;;
71020;Laerm;58902;51.436;5.980;2023-12-20T00:57:21;30.73;29.51;32.14;;
71020;Laerm;58902;51.436;5.980;2023-12-20T00:57:32;30.86;29.47;33.40;;
71020;Laerm;58902;51.436;5.980;2023-12-20T00:57:42;31.00;29.70;38.49;;
71020;Laerm;58902;51.436;5.980;2023-12-20T00:57:52;31.00;29.50;34.72;;
71020;Laerm;58902;51.436;5.980;2023-12-20T00:58:03;31.32;30.06;37.43;;
71020;Laerm;58902;51.436;5.980;2023-12-20T00:58:14;31.19;29.56;36.05;;
71020;Laerm;58902;51.436;5.980;2023-12-20T00:58:25;30.93;29.41;33.77;;
71020;Laerm;58902;51.436;5.980;2023-12-20T00:58:36;30.91;29.30;32.49;;
71020;Laerm;58902;51.436;5.980;2023-12-20T00:58:47;30.95;29.66;32.72;;
71020;Laerm;58902;51.436;5.980;2023-12-20T00:58:57;31.02;29.61;35.21;;